Snelling, South Carolina
Current Conditions -  °F | °C
As of 4:15 PM on Friday 31 Oct 2014 (Local Time) from KBNL Reporting Station
Scattered Clouds Scattered Clouds  
Wind Chill: 70°   Ceiling: Unl
Heat Index: 70°   Visibility: 10mi
Dew Point: 45°   Wind: 0mph
Humidity: 40%   Direction: NA
Pressure: 29.8"   Gusts: NA
Location:  33.2109°N, 81.3471°W
Report Text: KBNL 312015Z AUTO 00000KT 10SM FEW070 SCT090 21/07 A2980 RMK AO2
Loading
Personal Weather Stations






























Interactive Weather Map
Tropical Storm Tracking
New forecast layout! Learn more

10-Day Weather Forecast

Advertisements
Track Severe Weather on mobile